createdAt,value
2023-02-01T00:01:18.313Z,77.94
2023-02-01T00:03:50.658Z,78.67
2023-02-01T00:06:23.197Z,77.36
2023-02-01T00:08:57.415Z,78.13
2023-02-01T00:11:30.474Z,76.42
2023-02-01T00:14:02.863Z,75.43
2023-02-01T00:16:38.491Z,76.73
2023-02-01T00:19:14.815Z,75.09
2023-02-01T00:22:05.880Z,75.33
2023-02-01T00:24:37.937Z,74.81
2023-02-01T00:27:10.515Z,74.84
2023-02-01T00:29:42.554Z,74.46
2023-02-01T00:32:17.621Z,74.09
2023-02-01T00:34:49.917Z,75.12
2023-02-01T00:37:25.115Z,73.49
2023-02-01T00:39:57.675Z,74.80
2023-02-01T00:42:30.377Z,74.01
2023-02-01T00:45:02.345Z,74.79
2023-02-01T00:47:42.543Z,74.96
2023-02-01T00:50:14.816Z,74.78
2023-02-01T00:52:47.173Z,75.34
2023-02-01T00:55:19.356Z,75.64
2023-02-01T00:57:51.818Z,75.26
2023-02-01T01:00:24.294Z,77.52
2023-02-01T01:02:59.574Z,76.37
2023-02-01T01:05:31.853Z,77.60
2023-02-01T01:08:04.354Z,77.80
2023-02-01T01:10:37.372Z,77.65
2023-02-01T01:13:10.116Z,78.23
2023-02-01T01:15:42.832Z,78.27
2023-02-01T01:18:18.114Z,78.92
2023-02-01T01:20:52.174Z,78.92
2023-02-01T01:23:24.697Z,78.47
2023-02-01T01:25:57.320Z,78.79
2023-02-01T01:28:29.931Z,77.87
2023-02-01T01:31:02.254Z,78.66
2023-02-01T01:33:37.774Z,77.49
2023-02-01T01:36:12.473Z,77.74
2023-02-01T01:38:46.002Z,77.17
2023-02-01T01:41:19.460Z,77.89
2023-02-01T01:44:00.457Z,78.04
2023-02-01T01:46:34.272Z,77.82
2023-02-01T01:49:16.919Z,76.04
2023-02-01T01:51:53.642Z,76.30
2023-02-01T01:54:30.615Z,75.85
2023-02-01T01:57:08.006Z,74.96
2023-02-01T01:59:43.414Z,74.74
2023-02-01T02:02:15.860Z,76.30
2023-02-01T02:04:51.785Z,75.48
2023-02-01T02:07:29.022Z,75.86
2023-02-01T02:10:01.882Z,75.82
2023-02-01T02:12:33.996Z,75.03
2023-02-01T02:15:07.931Z,75.44
2023-02-01T02:17:46.715Z,74.77
2023-02-01T02:20:44.655Z,75.15
2023-02-01T02:23:52.372Z,75.69
2023-02-01T02:27:05.367Z,73.30
2023-02-01T02:30:18.936Z,75.84
2023-02-01T02:33:23.879Z,74.71
2023-02-01T02:36:04.800Z,75.53
2023-02-01T02:38:46.653Z,75.03
2023-02-01T02:41:35.051Z,73.75
2023-02-01T02:44:28.993Z,73.74
2023-02-01T02:47:20.896Z,74.70
2023-02-01T02:50:15.292Z,74.46
2023-02-01T02:53:06.314Z,74.01
2023-02-01T02:55:42.974Z,74.01
2023-02-01T02:58:38.709Z,74.10
2023-02-01T03:01:23.573Z,75.66
2023-02-01T03:04:34.669Z,75.84
2023-02-01T03:08:01.429Z,76.00
2023-02-01T03:10:43.291Z,76.61
2023-02-01T03:13:21.328Z,75.77
2023-02-01T03:16:01.767Z,74.60
2023-02-01T03:18:44.559Z,73.46
2023-02-01T03:21:22.702Z,74.08
2023-02-01T03:23:59.390Z,74.69
2023-02-01T03:26:34.806Z,74.89
2023-02-01T03:29:12.754Z,75.09
2023-02-01T03:31:45.724Z,74.75
2023-02-01T03:34:18.527Z,74.77
2023-02-01T03:36:55.488Z,76.12
2023-02-01T03:39:35.834Z,74.11
2023-02-01T03:42:13.547Z,74.74
2023-02-01T03:44:54.209Z,73.42
2023-02-01T03:47:29.592Z,74.02
2023-02-01T03:50:07.007Z,74.95
2023-02-01T03:52:45.172Z,72.77
2023-02-01T03:55:26.047Z,73.58
2023-02-01T03:58:06.009Z,73.50
2023-02-01T04:00:56.020Z,73.89
2023-02-01T04:03:29.312Z,73.81
2023-02-01T04:06:02.009Z,73.84
2023-02-01T04:08:34.270Z,74.08
2023-02-01T04:11:09.778Z,74.63
2023-02-01T04:13:42.048Z,73.07
2023-02-01T04:16:14.809Z,73.37
2023-02-01T04:18:47.169Z,74.20
2023-02-01T04:21:19.786Z,73.97
2023-02-01T04:23:51.928Z,72.67
2023-02-01T04:27:16.348Z,72.72
2023-02-01T04:29:48.827Z,73.49
2023-02-01T04:32:21.929Z,71.47
2023-02-01T04:34:54.242Z,73.59
2023-02-01T04:37:26.768Z,72.94
2023-02-01T04:39:58.918Z,72.77
2023-02-01T04:42:34.239Z,72.81
2023-02-01T04:45:06.780Z,71.83
2023-02-01T04:47:39.227Z,71.01
2023-02-01T04:50:13.039Z,70.17
2023-02-01T04:52:46.464Z,71.32
2023-02-01T04:55:18.839Z,70.57
2023-02-01T04:57:53.940Z,71.75
2023-02-01T05:00:26.291Z,71.59
2023-02-01T05:03:04.680Z,69.78
2023-02-01T05:05:36.839Z,70.00
2023-02-01T05:08:09.380Z,70.68
2023-02-01T05:10:41.460Z,70.89
2023-02-01T05:13:28.940Z,70.52
2023-02-01T05:16:00.872Z,68.56
2023-02-01T05:18:33.525Z,69.35
2023-02-01T05:21:07.162Z,70.93
2023-02-01T05:23:59.727Z,69.53
2023-02-01T05:26:34.933Z,69.95
2023-02-01T05:29:10.299Z,68.56
2023-02-01T05:31:42.992Z,70.47
2023-02-01T05:34:15.440Z,68.77
2023-02-01T05:36:47.878Z,69.03
2023-02-01T05:39:20.318Z,68.04
2023-02-01T05:41:52.044Z,69.64
2023-02-01T05:44:26.980Z,71.33
2023-02-01T05:46:59.081Z,70.84
2023-02-01T05:49:31.381Z,70.54
2023-02-01T05:52:29.364Z,70.74
2023-02-01T05:55:01.547Z,70.35
2023-02-01T05:57:33.510Z,70.78
2023-02-01T06:00:09.938Z,69.55
2023-02-01T06:03:01.234Z,70.68
2023-02-01T06:08:46.020Z,71.13
2023-02-01T06:11:31.689Z,69.79
2023-02-01T06:14:05.100Z,68.99
2023-02-01T06:16:39.480Z,70.37
2023-02-01T06:19:11.860Z,71.25
2023-02-01T06:21:43.629Z,71.40
2023-02-01T06:24:16.122Z,72.17
2023-02-01T06:26:48.032Z,73.85
2023-02-01T06:29:20.484Z,75.29
2023-02-01T06:31:55.216Z,74.67
2023-02-01T06:34:27.577Z,74.76
2023-02-01T06:36:59.781Z,74.89
2023-02-01T06:39:31.938Z,73.11
2023-02-01T06:42:03.959Z,74.32
2023-02-01T06:44:36.219Z,74.54
2023-02-01T06:47:11.083Z,73.86
2023-02-01T06:49:44.088Z,73.11
2023-02-01T06:52:16.127Z,73.50
2023-02-01T06:54:48.281Z,71.88
2023-02-01T06:57:20.186Z,71.66
2023-02-01T06:59:52.444Z,73.29
2023-02-01T07:02:27.400Z,73.36
2023-02-01T07:04:59.842Z,72.62
2023-02-01T07:07:31.899Z,72.89
2023-02-01T07:10:04.185Z,70.21
2023-02-01T07:13:17.941Z,71.17
2023-02-01T07:16:24.886Z,71.54
2023-02-01T07:19:01.075Z,70.03
2023-02-01T07:21:33.326Z,70.93
2023-02-01T07:24:06.131Z,72.13
2023-02-01T07:26:38.390Z,73.30
2023-02-01T07:29:11.032Z,74.34
2023-02-01T07:31:43.336Z,72.86
2023-02-01T07:34:18.736Z,73.99
2023-02-01T07:36:51.036Z,73.71
2023-02-01T07:39:24.227Z,72.91
2023-02-01T07:41:58.049Z,72.70
2023-02-01T07:44:30.770Z,74.56
2023-02-01T07:47:03.040Z,75.15
2023-02-01T07:49:38.750Z,76.36
2023-02-01T07:52:12.755Z,79.16
2023-02-01T07:54:45.911Z,81.33
2023-02-01T07:57:18.523Z,80.33
2023-02-01T08:00:03.276Z,80.29
2023-02-01T08:02:36.589Z,81.74
2023-02-01T08:05:13.109Z,83.24
2023-02-01T08:07:45.748Z,84.35
2023-02-01T08:10:19.087Z,82.86
2023-02-01T08:12:53.474Z,82.74
2023-02-01T08:15:26.533Z,84.31
2023-02-01T08:18:00.130Z,84.51
2023-02-01T08:20:37.428Z,86.27
2023-02-01T08:23:12.999Z,86.08
2023-02-01T08:25:46.274Z,87.07
2023-02-01T08:28:19.310Z,88.19
2023-02-01T08:30:52.178Z,86.90
2023-02-01T08:33:24.829Z,87.64
2023-02-01T08:36:13.005Z,86.28
2023-02-01T08:38:45.908Z,87.46
2023-02-01T08:41:20.571Z,88.04
2023-02-01T08:43:53.274Z,89.07
2023-02-01T08:46:26.255Z,87.75
2023-02-01T08:48:59.031Z,86.45
2023-02-01T08:51:34.589Z,83.95
2023-02-01T08:54:08.749Z,88.65
2023-02-01T08:56:46.805Z,90.96
2023-02-01T08:59:21.477Z,91.60
2023-02-01T09:01:56.951Z,89.91
2023-02-01T09:04:31.350Z,91.11
2023-02-01T09:07:06.788Z,91.12
2023-02-01T09:09:39.318Z,90.59
2023-02-01T09:12:12.355Z,90.03
2023-02-01T09:14:48.641Z,89.98
2023-02-01T09:17:21.549Z,88.54
2023-02-01T09:19:53.749Z,88.98
2023-02-01T09:22:29.260Z,88.31
2023-02-01T09:25:01.502Z,85.80
2023-02-01T09:27:34.395Z,86.43
2023-02-01T09:30:07.915Z,87.58
2023-02-01T09:32:40.550Z,85.63
2023-02-01T09:35:13.557Z,86.63
2023-02-01T09:37:48.914Z,87.42
2023-02-01T09:40:22.265Z,87.82
2023-02-01T09:43:21.075Z,85.34
2023-02-01T09:46:03.307Z,86.43
2023-02-01T09:48:40.989Z,88.20
2023-02-01T09:51:20.789Z,88.25
2023-02-01T09:54:05.839Z,86.01
2023-02-01T09:56:43.833Z,84.88
2023-02-01T09:59:30.921Z,87.86
2023-02-01T10:02:03.951Z,87.30
2023-02-01T10:04:37.692Z,87.49
2023-02-01T10:07:26.703Z,85.93
2023-02-01T10:10:11.173Z,88.28
2023-02-01T10:13:07.887Z,87.83
2023-02-01T10:15:54.503Z,88.64
2023-02-01T10:18:39.485Z,86.86
2023-02-01T10:21:22.451Z,89.37
2023-02-01T10:24:17.849Z,88.52
2023-02-01T10:27:00.052Z,88.45
2023-02-01T10:29:39.064Z,88.77
2023-02-01T10:32:21.265Z,87.16
2023-02-01T10:35:01.493Z,87.48
2023-02-01T10:37:36.409Z,86.29
2023-02-01T10:40:23.338Z,86.05
2023-02-01T10:43:04.182Z,84.65
2023-02-01T10:45:38.497Z,84.92
2023-02-01T10:48:13.134Z,88.52
2023-02-01T10:50:54.247Z,89.50
2023-02-01T10:53:33.533Z,88.53
2023-02-01T10:56:12.131Z,87.60
2023-02-01T10:58:53.004Z,87.42
2023-02-01T11:01:31.819Z,88.72
2023-02-01T11:04:06.963Z,87.14
2023-02-01T11:06:44.524Z,87.68
2023-02-01T11:09:25.668Z,87.88
2023-02-01T11:12:03.604Z,86.92
2023-02-01T11:14:45.046Z,87.81
2023-02-01T11:17:33.334Z,87.24
2023-02-01T11:20:10.606Z,85.11
2023-02-01T11:22:52.813Z,86.19
2023-02-01T11:25:26.622Z,86.32
2023-02-01T11:28:01.095Z,85.22
2023-02-01T11:30:44.724Z,84.58
2023-02-01T11:33:21.060Z,83.66
2023-02-01T11:35:56.135Z,82.41
2023-02-01T11:38:34.007Z,83.05
2023-02-01T11:41:28.608Z,81.34
2023-02-01T11:44:02.741Z,81.56
2023-02-01T11:46:40.005Z,80.99
2023-02-01T11:49:25.928Z,80.05
2023-02-01T11:52:17.445Z,79.61
2023-02-01T11:55:09.005Z,78.90
2023-02-01T11:57:55.924Z,76.80
2023-02-01T12:00:44.884Z,78.89
2023-02-01T12:03:57.414Z,78.17
2023-02-01T12:06:38.504Z,79.76
2023-02-01T12:09:24.526Z,78.03
2023-02-01T12:12:07.927Z,76.62
2023-02-01T12:14:56.684Z,74.37
2023-02-01T12:18:01.776Z,75.66
2023-02-01T12:21:05.723Z,76.76
2023-02-01T12:23:59.452Z,78.14
2023-02-01T12:26:56.019Z,75.91
2023-02-01T12:29:51.604Z,75.36
2023-02-01T12:32:37.212Z,76.23
2023-02-01T12:35:36.008Z,76.21
2023-02-01T12:38:29.762Z,74.14
2023-02-01T12:41:18.682Z,76.40
2023-02-01T12:43:58.485Z,76.85
2023-02-01T12:46:36.778Z,76.17
2023-02-01T12:49:16.412Z,74.97
2023-02-01T12:51:52.685Z,73.54
2023-02-01T12:54:38.927Z,73.46
2023-02-01T12:57:19.655Z,73.15
2023-02-01T13:00:08.006Z,73.00
2023-02-01T13:02:46.085Z,72.08
2023-02-01T13:05:23.254Z,73.59
2023-02-01T13:08:05.609Z,72.68
2023-02-01T13:10:46.369Z,70.68
2023-02-01T13:13:25.374Z,71.99
2023-02-01T13:16:05.924Z,72.47
2023-02-01T13:18:41.779Z,72.72
2023-02-01T13:21:20.808Z,72.49
2023-02-01T13:23:55.273Z,73.64
2023-02-01T13:26:38.342Z,72.64
2023-02-01T13:29:17.935Z,72.85
2023-02-01T13:32:06.526Z,72.31
2023-02-01T13:35:11.886Z,71.52
2023-02-01T13:38:02.450Z,71.87
2023-02-01T13:40:43.413Z,72.57
2023-02-01T13:43:24.006Z,71.40
2023-02-01T13:46:01.117Z,71.40
2023-02-01T13:48:40.944Z,68.44
2023-02-01T13:51:13.648Z,69.67
2023-02-01T13:53:50.727Z,70.82
2023-02-01T13:56:26.203Z,69.84
2023-02-01T13:59:21.526Z,69.71
2023-02-01T14:01:54.007Z,68.93
2023-02-01T14:04:51.810Z,70.40
2023-02-01T14:07:26.124Z,70.42
2023-02-01T14:09:59.207Z,70.37
2023-02-01T14:12:47.724Z,73.18
2023-02-01T14:15:29.153Z,73.23
2023-02-01T14:18:01.929Z,74.60
2023-02-01T14:20:50.322Z,74.53
2023-02-01T14:23:43.324Z,74.64
2023-02-01T14:26:22.927Z,73.84
2023-02-01T14:29:02.899Z,73.91
2023-02-01T14:32:08.173Z,73.36
2023-02-01T14:34:55.296Z,74.84
2023-02-01T14:37:35.327Z,72.67
2023-02-01T14:40:10.568Z,73.30
2023-02-01T14:42:49.048Z,73.48
2023-02-01T14:45:54.617Z,74.24
2023-02-01T14:48:50.413Z,74.33
2023-02-01T14:51:26.332Z,73.83
2023-02-01T14:53:59.071Z,72.66
2023-02-01T14:56:32.066Z,72.39
2023-02-01T14:59:17.267Z,73.07
2023-02-01T15:01:58.234Z,72.88
2023-02-01T15:04:31.924Z,72.04
2023-02-01T15:07:11.845Z,71.48
2023-02-01T15:09:50.125Z,72.79
2023-02-01T15:12:29.286Z,77.25
2023-02-01T15:15:18.807Z,77.97
2023-02-01T15:17:59.044Z,79.25
2023-02-01T15:20:34.057Z,79.69
2023-02-01T15:23:11.245Z,80.21
2023-02-01T15:25:45.046Z,80.28
2023-02-01T15:28:18.884Z,79.65
2023-02-01T15:31:00.869Z,79.38
2023-02-01T15:33:35.043Z,81.72
2023-02-01T15:36:17.806Z,81.59
2023-02-01T15:38:52.934Z,87.01
2023-02-01T15:41:33.167Z,87.23
2023-02-01T15:44:17.604Z,87.52
2023-02-01T15:46:53.338Z,87.87
2023-02-01T15:49:30.769Z,87.44
2023-02-01T15:52:06.045Z,88.09
2023-02-01T15:54:53.764Z,89.49
2023-02-01T15:57:36.365Z,90.63
2023-02-01T16:00:12.243Z,89.18
2023-02-01T16:02:56.277Z,86.22
2023-02-01T16:05:37.140Z,89.87
2023-02-01T16:08:15.768Z,89.72
2023-02-01T16:10:53.431Z,89.55
2023-02-01T16:13:26.694Z,89.19
2023-02-01T16:15:59.206Z,90.69
2023-02-01T16:18:32.173Z,91.10
2023-02-01T16:21:10.292Z,91.23
2023-02-01T16:23:59.658Z,92.76
2023-02-01T16:26:36.736Z,92.10
2023-02-01T16:29:10.373Z,90.77
2023-02-01T16:31:44.090Z,91.15
2023-02-01T16:34:20.415Z,91.82
2023-02-01T16:36:58.371Z,91.73
2023-02-01T16:39:34.694Z,91.06
2023-02-01T16:42:16.027Z,90.48
2023-02-01T16:44:49.499Z,91.39
2023-02-01T16:47:24.170Z,91.98
2023-02-01T16:49:57.132Z,89.93
2023-02-01T16:52:31.572Z,90.65
2023-02-01T16:55:04.574Z,91.40
2023-02-01T16:57:43.694Z,90.71
2023-02-01T17:00:25.043Z,91.44
2023-02-01T17:02:58.451Z,92.21
2023-02-01T17:05:31.855Z,90.91
2023-02-01T17:08:08.973Z,91.14
2023-02-01T17:10:41.972Z,91.08
2023-02-01T17:13:20.095Z,91.67
2023-02-01T17:15:57.073Z,90.05
2023-02-01T17:18:33.135Z,91.70
2023-02-01T17:21:08.226Z,91.60
2023-02-01T17:23:41.171Z,90.38
2023-02-01T17:26:14.582Z,90.57
2023-02-01T17:28:50.050Z,90.48
2023-02-01T17:31:23.094Z,89.04
2023-02-01T17:33:56.972Z,90.84
2023-02-01T17:36:30.251Z,90.37
2023-02-01T17:39:06.237Z,88.83
2023-02-01T17:41:40.771Z,90.06
2023-02-01T17:44:16.093Z,89.54
2023-02-01T17:46:49.252Z,87.76
2023-02-01T17:49:21.937Z,88.99
2023-02-01T17:51:55.613Z,88.86
2023-02-01T17:54:31.819Z,88.50
2023-02-01T17:57:04.970Z,87.62
2023-02-01T17:59:40.132Z,85.54
2023-02-01T18:03:26.654Z,87.65
2023-02-01T18:06:02.502Z,87.39
2023-02-01T18:08:36.054Z,86.46
2023-02-01T18:11:15.215Z,87.56
2023-02-01T18:13:48.291Z,87.08
2023-02-01T18:16:24.841Z,86.21
2023-02-01T18:19:02.499Z,86.76
2023-02-01T18:21:38.497Z,87.66
2023-02-01T18:24:13.097Z,88.33
2023-02-01T18:26:46.973Z,88.68
2023-02-01T18:29:19.612Z,85.32
2023-02-01T18:31:53.395Z,85.29
2023-02-01T18:34:30.626Z,86.59
2023-02-01T18:37:03.976Z,88.40
2023-02-01T18:39:39.090Z,86.76
2023-02-01T18:42:14.294Z,85.52
2023-02-01T18:44:47.022Z,86.26
2023-02-01T18:47:19.854Z,87.34
2023-02-01T18:49:55.008Z,86.20
2023-02-01T18:52:27.653Z,85.06
2023-02-01T18:55:00.497Z,85.12
2023-02-01T18:57:34.312Z,84.19
2023-02-01T19:00:11.330Z,85.61
2023-02-01T19:02:52.180Z,87.13
2023-02-01T19:05:26.812Z,85.85
2023-02-01T19:08:00.287Z,85.71
2023-02-01T19:10:33.870Z,85.01
2023-02-01T19:13:05.363Z,85.68
2023-02-01T19:15:40.711Z,86.02
2023-02-01T19:18:16.753Z,86.40
2023-02-01T19:20:55.310Z,87.32
2023-02-01T19:23:27.835Z,87.58
2023-02-01T19:25:59.998Z,86.59
2023-02-01T19:28:32.125Z,86.10
2023-02-01T19:31:07.286Z,85.95
2023-02-01T19:33:40.119Z,86.13
2023-02-01T19:36:15.208Z,86.35
2023-02-01T19:38:47.482Z,84.50
2023-02-01T19:41:19.422Z,84.23
2023-02-01T19:43:51.822Z,85.66
2023-02-01T19:46:23.795Z,83.95
2023-02-01T19:48:56.054Z,83.30
2023-02-01T19:51:31.123Z,84.96
2023-02-01T19:54:06.776Z,84.86
2023-02-01T19:56:38.738Z,83.47
2023-02-01T19:59:13.503Z,82.58
2023-02-01T20:01:46.933Z,83.27
2023-02-01T20:04:22.708Z,82.25
2023-02-01T20:06:57.496Z,79.98
2023-02-01T20:09:31.591Z,81.40
2023-02-01T20:12:03.844Z,81.60
2023-02-01T20:14:36.234Z,83.05
2023-02-01T20:17:09.194Z,84.03
2023-02-01T20:19:41.475Z,83.99
2023-02-01T20:22:16.378Z,84.44
2023-02-01T20:24:48.683Z,84.70
2023-02-01T20:27:21.349Z,84.46
2023-02-01T20:29:55.088Z,84.67
2023-02-01T20:32:29.746Z,85.03
2023-02-01T20:35:08.027Z,83.17
2023-02-01T20:37:43.006Z,82.72
2023-02-01T20:40:16.479Z,83.91
2023-02-01T20:42:48.513Z,82.65
2023-02-01T20:45:21.016Z,83.87
2023-02-01T20:47:54.440Z,83.81
2023-02-01T20:50:27.093Z,83.52
2023-02-01T20:53:02.195Z,82.54
2023-02-01T20:55:34.978Z,81.02
2023-02-01T20:58:07.125Z,82.56
2023-02-01T21:00:39.723Z,82.19
2023-02-01T21:03:12.642Z,82.45
2023-02-01T21:05:50.925Z,82.70
2023-02-01T21:08:25.883Z,82.36
2023-02-01T21:11:03.906Z,82.45
2023-02-01T21:13:40.987Z,82.40
2023-02-01T21:16:16.596Z,82.21
2023-02-01T21:18:52.362Z,81.73
2023-02-01T21:21:25.151Z,81.31
2023-02-01T21:24:02.751Z,82.10
2023-02-01T21:26:41.667Z,83.07
2023-02-01T21:29:16.366Z,83.28
2023-02-01T21:31:48.872Z,82.77
2023-02-01T21:34:20.853Z,81.39
2023-02-01T21:36:53.270Z,81.11
2023-02-01T21:39:29.457Z,80.18
2023-02-01T21:42:13.984Z,79.44
2023-02-01T21:44:46.609Z,82.01
2023-02-01T21:47:21.301Z,80.51
2023-02-01T21:49:58.131Z,79.71
2023-02-01T21:52:30.660Z,79.35
2023-02-01T21:55:05.610Z,80.67
2023-02-01T21:57:38.091Z,82.78
2023-02-01T22:00:13.472Z,82.26
2023-02-01T22:02:46.440Z,80.24
2023-02-01T22:05:19.020Z,80.47
2023-02-01T22:07:51.390Z,81.64
2023-02-01T22:10:26.088Z,80.84
2023-02-01T22:12:58.515Z,81.06
2023-02-01T22:15:31.604Z,81.15
2023-02-01T22:18:04.145Z,80.83
2023-02-01T22:20:36.064Z,78.62
2023-02-01T22:23:08.610Z,78.50
2023-02-01T22:25:43.124Z,80.28
2023-02-01T22:28:31.859Z,79.16
2023-02-01T22:31:06.648Z,79.95
2023-02-01T22:33:42.784Z,79.85
2023-02-01T22:36:17.232Z,78.92
2023-02-01T22:38:50.503Z,79.10
2023-02-01T22:41:25.041Z,77.74
2023-02-01T22:43:57.262Z,77.49
2023-02-01T22:46:31.680Z,76.22
2023-02-01T22:49:04.372Z,77.40
2023-02-01T22:51:36.570Z,78.72
2023-02-01T22:54:08.889Z,77.86
2023-02-01T22:56:43.327Z,78.13
2023-02-01T22:59:17.102Z,78.15
2023-02-01T23:01:49.062Z,78.02
2023-02-01T23:04:21.757Z,78.13
2023-02-01T23:06:54.600Z,77.86
2023-02-01T23:09:29.123Z,79.37
2023-02-01T23:12:03.874Z,79.60
2023-02-01T23:14:56.632Z,80.10
2023-02-01T23:17:28.308Z,79.03
2023-02-01T23:20:02.605Z,79.01
2023-02-01T23:22:36.191Z,79.16
2023-02-01T23:25:09.264Z,79.36
2023-02-01T23:27:47.622Z,80.96
2023-02-01T23:30:20.112Z,80.01
2023-02-01T23:32:52.449Z,80.33
2023-02-01T23:35:25.337Z,79.92
2023-02-01T23:37:57.563Z,79.79
2023-02-01T23:40:29.966Z,78.52
2023-02-01T23:43:16.892Z,79.18
2023-02-01T23:45:49.203Z,77.95
2023-02-01T23:48:21.254Z,78.52
2023-02-01T23:50:53.685Z,77.89
2023-02-01T23:53:25.797Z,78.07
2023-02-01T23:55:58.563Z,78.33
2023-02-01T23:58:33.675Z,77.73
